Richmond, VA (23234)

3:20 PM EST on February 14, 2016 (GMT -0500)
Mason Woods West | | Change Station
CLOSE
Current Station
Personal Weather Station
Location: Richmond, VA
Elevation: 177 ft
Nearby Weather Stations
Active Advisory: Winter Weather Advisory

Elev 177 ft 37.42 °N, 77.48 °W | Updated 12 seconds ago

Clear
Clear
26.2 °F
Feels Like 26 °F
N
0.0
Wind Variable Wind from ENE
Gusts 0.0 mph

Today
High -- | Low -- °F
--% Chance of Precip.
Yesterday
High -- | Low -- °F
Precip. -- in
Pressure 30.51 in
Visibility 10.0 miles
Clouds Few 30000 ft
Windchill 26 °F
Dew Point -3 °F
Humidity 27%
Rainfall 0.00 in
Snow Depth Not available.
7:00 AM 5:47 PM
Waxing Crescent, 45% visible
METAR KRIC 141954Z VRB03KT 10SM FEW300 M04/M18 A3048 RMK AO2 SLP331 T10391183
Pressure 30.51 in
Visibility 10.0 miles
Clouds Few 30000 ft
Windchill 26 °F
Dew Point -3 °F
Humidity 27%
Rainfall 0.00 in
Snow Depth Not available.
7:00 AM 5:47 PM
Waxing Crescent, 45% visible
METAR KRIC 141954Z VRB03KT 10SM FEW300 M04/M18 A3048 RMK AO2 SLP331 T10391183

10-Day Weather Forecast

Almanac

Astronomy

Feb. 14, 2016 Rise Set
Actual Time
Civil Twilight
Nautical Twilight
Astronomical Twilight
Moon
Length of Visible Light
Length of Day
Tomorrow will be .
, % of the Moon is Illuminated

Today's Extremes

State Highs State Lows

Community

WunderPhotos

Upload Photos

1,892,880 photos uploaded!

WunderBlog® & News

Nearby

Air Quality

  Air Quality AQ Index Pollutant
Not available.

Snow Depth

Station Depth Elevation

Earthquake Activity

City Distance Mag. Time & Date
Minimum magnitude displayed is 2.5.

Coastal Water Temperatures

Place Temperature

Stations

Nearby Weather Stations

Station Location Temp. Windchill Dew Point Humidity Wind Precip. Elev Updated Type
                   

Watches & Warnings

Winter Weather Advisory
Issued: 2:51 PM EST Feb. 14, 2016 – National Weather Service

... Winter Weather Advisory remains in effect from midnight
tonight to 7 PM EST Monday...

* areas affected: central and south central Virginia.

* Hazards: snow... sleet and freezing rain.

* Accumulations: one to four inches of snow... and up to one tenth
of an inch of ice.

* Temperatures: lows tonight around 20. Highs late Monday in the
lower to mid 30s.

* Timing: snow overspreading the area around midnight tonight... then
continuing through the morning hours Monday. The snow is
expected to change to sleet and freezing rain late Monday
morning or early afternoon... then eventually rain through Monday
afternoon and Monday evening.

* Impacts: hazardous travel due to snow and ice covered roads.

Precautionary/preparedness actions...

A Winter Weather Advisory means that periods of snow... sleet... or
freezing rain will cause travel difficulties. Be prepared for
slippery roads and limited visibilities... and use caution while
driving.